Create Custom Reports and Graphics: Custom Report

Lindcove R.E.C.

Current Conditions

11/30/22 5:00 AM (-08:00)
Updated Every 15 Minutes
Temp 32.2 °F   1.4
Upper Temp 37.4 °F   2.7
Temp Inversion 5.1 °F   1.3
RH 92 %   2
Dew Pt 30.2 °F   1.8
Wind Dir SSE | 148 °
Wind Spd 0.8 mph   0.5
Wind Gust 2.6 mph   1.5
BatVolt 12.4 V   0.0

Today & Yesterday

Lindcove R.E.C.

11/30/22 5:00 AM (-08:00)
Updated Every 15 Minutes
Daily Max Temp 34.3 °F   2.3
Time of Max Temp 0030
Daily Min Temp 31.1 °F   0.5
Time of Min Temp 0400
Upper Max Temp 43.5 °F   1.9
Upper Min Temp 36.2 °F   2.0
Daily Max Wind 3.7 mph   0.2
Time of Max Wind 0430
Max Wind Dir NNW | 347 °
Daily Rain 0.00 In
Yest MaxT 63.3 °F
Yest MinT 29.6 °F
Yest MaxGst 6.8 mph
Yest Precip 0.00 In
Month Precip 0.82 In
Season Precip 0.91 In

Daily Meteorological Summary

Last 30 Days

Daily Data | America/Los_Angeles
as of 11/30/22 5:10 AM PST
Date Daily Max Temp (°F) Time of Max Temp Daily Min Temp (°F) Time of Min Temp Daily Rain (In) Season Precip (In) Wind Spd (mph) Daily Max Wind (mph) Time of Max Wind Max Wind Dir (°) Dew Pt (°F) Max RH (%) Min RH (%) Upper Max Temp (°F) Max Upper Temp Time Upper Min Temp (°F) Min Upper Temp Time Max Temp Inversion (°F) Time of Max Temp Inversion Min Temp Inversion (°F) Time of Min Temp Inversion Max 1 Min Rain (In) Max 1 Min Rain Time Max 15 Min Rain (In) Max 15 Min Precip Time Max 60 Min Rain (In) Max 60 Min Rain Time Storm Total (In) MinBV Day (V)
11/29/22 63.3 1430 29.6 0700 0.00 0.91 1.0 6.8 1441 WNW | 296 33.7 93 35 60.6 1401 33.3 0541 10.8 0233 -5.4 1431 - - - - - - - 12.3
11/28/22 66.4 1337 33.6 0704 0.00 0.91 1.5 10.1 1426 W | 267 34.1 93 30 63.1 1320 38.6 0658 10.8 1944 -4.3 1330 - - - - - - - 12.3
11/27/22 66.7 1319 32.3 0543 0.00 0.91 1.0 6.6 1032 SW | 228 34.1 93 27 65.5 1515 37.3 0654 13.8 0216 -4.0 0949 - - - - - - - 12.3
11/26/22 71.7 1322 32.6 0631 0.00 0.91 1.1 7.9 1213 SW | 229 32.8 90 22 67.9 1318 38.1 0504 13.0 0300 -4.9 1330 - - - - - - - 12.3
11/25/22 76.8 1428 33.8 0610 0.00 0.91 1.3 9.4 1314 NW | 306 31.0 91 12 72.8 1502 39.3 0529 15.8 0013 -4.9 1315 - - - - - - - 12.3
11/24/22 75.3 1429 32.8 0541 0.00 0.91 1.0 6.8 1200 NW | 306 34.7 94 19 71.7 1410 36.9 0646 14.6 2157 -5.7 1340 - - - - - - - 12.3
11/23/22 68.3 1417 33.2 0628 0.00 0.91 0.9 7.0 1224 SW | 231 35.1 93 28 64.4 1409 37.8 0537 11.6 2241 -4.9 1417 - - - - - - - 12.3
11/22/22 68.2 1425 32.1 0319 0.00 0.91 1.2 6.6 0635 NE | 46 33.7 92 27 65.4 1431 36.2 0647 10.9 2155 -5.1 1401 - - - - - - - 12.3
11/21/22 65.3 1412 31.6 0716 0.00 0.91 0.8 5.0 1035 S | 189 33.2 92 28 63.3 1521 36.0 0542 10.8 1750 -3.9 1019 - - - - - - - 12.3
11/20/22 70.8 1503 30.4 0642 0.00 0.91 1.0 7.7 1314 W | 265 32.2 94 20 67.0 1431 36.4 0700 13.5 0103 -5.1 1403 - - - - - - - 12.3
11/19/22 68.1 1426 31.4 0654 0.00 0.91 1.1 7.5 1246 WNW | 293 34.4 94 25 65.4 1338 35.6 0701 11.6 1805 -5.3 1321 - - - - - - - 12.4
11/18/22 68.0 1455 31.6 0631 0.00 0.91 1.0 7.0 1100 SW | 216 34.6 94 26 63.5 1415 36.7 0614 10.8 1743 -5.6 1345 - - - - - - - 12.3
11/17/22 72.4 1342 32.0 0637 0.00 0.91 1.1 9.6 1407 NW | 318 33.9 94 18 68.2 1428 37.2 0701 12.1 1949 -5.9 1344 - - - - - - - 12.4
11/16/22 70.2 1511 33.1 0641 0.00 0.91 1.0 6.8 1148 NNW | 336 35.3 94 25 66.7 1403 37.9 0704 12.0 2328 -5.0 1021 - - - - - - - 12.2
11/15/22 68.2 1350 32.1 0554 0.00 0.91 1.1 7.0 1552 WNW | 285 36.0 94 29 64.0 1342 36.9 0449 10.7 1748 -6.0 1350 - - - - - - - 12.3
11/14/22 68.2 1500 33.4 0642 0.00 0.91 0.9 7.2 1210 NNW | 344 36.9 95 31 65.0 1458 38.1 0656 10.5 1818 -6.8 1310 - - - - - - - 12.4
11/13/22 61.0 1441 34.8 0631 0.00 0.91 1.8 11.4 1228 SSW | 206 39.3 94 44 58.1 1453 37.9 0658 7.2 1844 -4.3 1447 - - - - - - - 12.4
11/12/22 65.4 1438 34.5 0648 0.00 0.91 1.2 9.2 1324 NNW | 328 39.6 94 39 63.0 1413 38.0 0641 8.5 1852 -5.1 1443 - - - - - - - 12.4
11/11/22 61.4 1326 33.5 0611 0.00 0.91 1.0 7.9 1201 W | 281 39.1 95 44 59.8 1135 37.5 0659 7.8 0517 -3.6 1152 - - - - - - - 12.4
11/10/22 63.9 1406 34.0 0628 0.00 0.91 1.0 8.3 1030 SW | 220 38.0 95 38 60.8 1343 37.1 0542 8.3 1906 -5.6 1432 - - - - - - - 12.4
11/9/22 62.0 1455 39.3 2304 0.00 0.91 1.9 12.7 0109 ESE | 123 40.3 93 42 58.5 1149 42.1 2346 6.9 1758 -4.5 1019 - - - - - - 0.60 12.4
11/8/22 68.3 1007 42.2 0233 0.45 0.91 3.9 23.7 1040 SW | 217 44.4 93 43 68.1 1000 44.4 0232 6.5 0008 -2.4 1053 0.01 1911 0.10 1227 0.21 1242 0.60 12.4
11/7/22 64.4 1125 43.2 2358 0.15 0.46 2.4 14.5 1329 W | 276 49.3 93 60 63.4 1123 46.8 2356 7.1 2335 -3.0 1307 0.01 1919 0.03 1855 0.06 1428 0.15 12.4
11/6/22 73.8 1257 40.7 0526 0.00 0.31 1.5 15.1 2328 SSE | 153 44.5 93 32 69.7 1209 44.5 0335 8.4 0040 -5.7 1258 - - - - - - - 12.4
11/5/22 69.6 1532 36.5 0741 0.00 0.31 1.0 8.3 1503 WSW | 237 39.1 94 30 65.6 1530 40.0 0730 8.9 2012 -5.7 1504 - - - - - - - 12.4
11/4/22 66.2 1427 36.0 0718 0.00 0.31 1.0 8.1 1352 SW | 226 37.8 94 32 61.8 1605 39.0 0746 9.0 2027 -5.4 1358 - - - - - - - 12.4
11/3/22 61.7 1527 38.8 0048 0.00 0.31 1.5 11.4 1325 WSW | 239 39.9 92 36 58.2 1611 41.2 0059 8.7 2226 -5.8 1354 - - - - - - 0.22 12.4
11/2/22 65.9 1512 45.1 0746 0.01 0.31 1.9 18.4 1809 NW | 322 42.6 94 30 61.8 1452 46.0 0742 3.1 1017 -5.4 1511 0.01 0000 0.01 0014 0.01 0059 0.22 12.4
11/1/22 74.2 1355 44.4 0634 0.21 0.30 2.4 22.1 1855 WNW | 290 42.2 93 20 72.5 1622 48.8 0654 14.2 0417 -3.4 1230 0.02 1705 0.12 1711 0.16 1756 0.21 12.4
10/31/22 74.5 1149 41.2 0750 0.00 0.09 1.1 7.5 1227 WSW | 247 42.3 95 27 72.2 1410 47.0 0736 13.8 0542 -3.6 1151 - - - - - - - 12.3
Max 76.8 - 45.1 - 0.45 0.91 3.9 23.7 - - 49.3 95 60 72.8 - 48.8 - 15.8 - -2.4 - 0.02 - 0.12 - 0.21 - 0.60 12.4
Avg - - - - - - 1.4 - - - 37.5 - - - - - - - - - - - - - - - - 0.33 -
Min 61.0 - 29.6 - 0.00 0.09 0.8 5.0 - - 31.0 90 12 58.1 - 33.3 - 3.1 - -6.8 - 0.01 - 0.01 - 0.01 - 0.15 12.2

Daily Bio-Meteorological Summary

Last 30 Days

Daily Data | America/Los_Angeles
as of 11/30/22 5:10 AM PST
Date Daily Max Temp (°F) Daily Min Temp (°F) Daily Rain (In) GDDs (DL) GDDs (Mx/Mn) Seas GDDs (DL) Seas GDDs (Smpl) Chilling <=45F (hrs) Chill Hrs 32-45F (hrs) Utah Chilling (Units) Chilling <=45F Seas (hrs) Chill Hrs 32-45 Seas (hrs) Utah Chilling Seas (Units) Chill Portions Hrs 70-85F (hrs) Hrs > 95F (hrs) Powdery Mildew Stress (pts) Bee Hrs Today (Hrs) Hrs <= 32F (hrs) Hrs <= 28F (hrs)
11/29/22 63.3 29.6 0.00 2.2 0.0 - - 15.8 12.2 6.0 326 319 128 15 0.00 0.00 - 4.9 3.6 0.0
11/28/22 66.4 33.6 0.00 3.7 0.0 - - 14.2 14.2 6.0 310 307 122 15 0.00 0.00 - 6.8 0.0 0.0
11/27/22 66.7 32.3 0.00 4.0 0.0 - - 14.2 14.2 6.5 296 292 116 15 0.00 0.00 - 6.9 0.0 0.0
11/26/22 71.7 32.6 0.00 5.2 2.2 - - 13.6 13.6 6.5 282 278 111 14 1.95 0.00 - 7.2 0.0 0.0
11/25/22 76.8 33.8 0.00 6.7 5.3 - - 13.4 13.4 6.0 268 265 106 14 3.96 0.00 - 7.5 0.0 0.0
11/24/22 75.3 32.8 0.00 5.4 4.0 - - 13.5 13.5 2.5 255 251 100 14 2.60 0.00 - 6.8 0.0 0.0
11/23/22 68.3 33.2 0.00 3.7 0.7 - - 14.6 14.6 6.5 241 238 99 14 0.00 0.00 - 6.6 0.0 0.0
11/22/22 68.2 32.1 0.00 3.5 0.2 - - 13.4 13.4 6.5 227 223 94 13 0.00 0.00 - 6.7 0.0 0.0
11/21/22 65.3 31.6 0.00 3.2 0.0 - - 13.7 13.4 6.5 213 210 88 13 0.00 0.00 - 6.8 0.3 0.0
11/20/22 70.8 30.4 0.00 4.5 0.6 - - 14.4 12.1 6.0 200 196 82 12 0.43 0.00 - 6.8 2.2 0.0
11/19/22 68.1 31.4 0.00 3.7 0.0 - - 14.8 14.2 7.0 185 184 76 12 0.00 0.00 - 6.7 0.6 0.0
11/18/22 68.0 31.6 0.00 3.5 0.0 - - 14.8 14.4 6.5 170 170 70 11 0.00 0.00 - 6.7 0.4 0.0
11/17/22 72.4 32.0 0.00 5.0 2.2 - - 13.3 13.2 1.0 156 156 64 11 1.80 0.00 - 7.0 0.0 0.0
11/16/22 70.2 33.1 0.00 4.4 1.7 - - 14.2 14.2 6.5 142 142 64 10 0.01 0.00 - 7.0 0.0 0.0
11/15/22 68.2 32.1 0.00 3.5 0.2 - - 14.3 14.3 6.5 128 128 59 10 0.00 0.00 - 6.6 0.0 0.0
11/14/22 68.2 33.4 0.00 3.8 0.8 - - 14.2 14.2 6.5 114 114 54 9 0.00 0.00 - 6.9 0.0 0.0
11/13/22 61.0 34.8 0.00 1.7 0.0 - - 13.8 13.8 6.5 100 100 48 9 0.00 0.00 - 4.1 0.0 0.0
11/12/22 65.4 34.5 0.00 3.1 0.0 - - 10.7 10.7 6.5 86 86 42 8 0.00 0.00 - 6.5 0.0 0.0
11/11/22 61.4 33.5 0.00 2.5 0.0 - - 12.7 12.7 6.5 75 75 37 8 0.00 0.00 - 6.6 0.0 0.0
11/10/22 63.9 34.0 0.00 2.7 0.0 - - 14.2 14.2 6.5 62 62 32 7 0.00 0.00 - 6.7 0.0 0.0
11/9/22 62.0 39.3 0.00 2.1 0.7 - - 7.7 7.7 7.0 48 48 26 6 0.00 0.00 - 5.4 0.0 0.0
11/8/22 68.3 42.2 0.45 1.9 5.3 - - 3.7 3.7 8.5 41 41 20 5 0.00 0.00 - 2.6 0.0 0.0
11/7/22 64.4 43.2 0.15 5.9 3.8 - - 0.4 0.4 4.0 37 37 12 4 0.00 0.00 - 5.3 0.0 0.0
11/6/22 73.8 40.7 0.00 9.7 7.3 - - 6.3 6.3 0.0 36 36 10 4 1.29 0.00 - 8.5 0.0 0.0
11/5/22 69.6 36.5 0.00 4.8 3.0 - - 9.9 9.9 4.5 30 30 20 3 0.00 0.00 - 7.2 0.0 0.0
11/4/22 66.2 36.0 0.00 3.4 1.1 - - 12.6 12.6 6.5 20 20 16 3 0.00 0.00 - 7.1 0.0 0.0
11/3/22 61.7 38.8 0.00 2.2 0.3 - - 7.2 7.2 6.5 8 8 11 2 0.00 0.00 - 5.4 0.0 0.0
11/2/22 65.9 45.1 0.01 3.3 5.5 - - 0.0 0.0 4.0 0 0 6 1 0.00 0.00 - 6.6 0.0 0.0
11/1/22 74.2 44.4 0.21 7.6 9.3 - - 0.5 0.5 3.0 0 0 2 1 3.91 0.00 - 7.5 0.0 0.0
10/31/22 74.5 41.2 0.00 7.9 7.8 5,212 5,350 6.8 6.8 2.0 - - - 1 4.01 0.00 20 7.7 0.0 0.0
Max 76.8 45.1 0.45 9.7 9.3 - - 15.8 14.6 8.5 - - - 15 4.01 0.00 - 8.5 3.6 0.0
Avg - - - 4.2 2.1 - - 11.1 10.9 5.5 - - - 9 0.67 0.00 - 6.5 0.2 0.0
Min 61.0 29.6 0.00 1.7 0.0 - - 0.0 0.0 0.0 - - - 1 0.00 0.00 - 2.6 0.0 0.0
Total - - - 124.7 61.9 - - 333.0 325.8 165.0 - - - - 19.97 0.00 - 195.2 7.2 0.0

Climate Summary

Lindcove R.E.C.

Current Year | Showing 1/1/22 - 11/29/22
as of 11/30/22 5:10 AM PST
Temperature (°F) Max Wind Gust (mph) Precip (in) Days
Month Days Avg High Avg Low Max Min Avg Max Total Daily Min Temp < 28 Daily Min Temp < 32 Daily Max Temp > 90 Daily Max Temp > 100 Daily Rain > 0.01 Daily Rain > 0.1
Jan 2022 31 64.5 34.5 70.4 29.4 7.6 10.7 0 0 11 0 0 0 0
Feb 2022 28 70.3 33.8 87.1 29 9.2 21.9 0.45 0 9 0 0 1 1
Mar 2022 31 75.3 41.7 92.3 34.2 11.5 23.2 1.27 0 0 3 0 3 2
Apr 2022 30 79.7 44.4 97.1 31.7 14.1 21.3 0.29 0 1 3 0 2 2
May 2022 31 87.1 50.2 104.8 39.1 14.4 18 0 0 0 11 2 0 0
Jun 2022 30 97.2 58.6 108.3 47.4 15.8 36.8 0.12 0 0 25 13 1 1
Jul 2022 31 101.9 64.7 111.6 55.2 13.6 17.5 0 0 0 29 21 0 0
Aug 2022 31 102.3 66 108.6 60.4 13.1 20 0.09 0 0 31 21 1 0
Sep 2022 30 97.1 62.6 114.6 52.6 12.6 17.5 0 0 0 22 11 0 0
Oct 2022 31 87.4 50.5 98.2 38.2 10.5 14.2 0 0 0 16 0 0 0
Nov 2022 29 67.8 35.1 76.8 29.6 10 23.7 0.82 0 6 0 0 3 3
Total 333 - - - - - - 3.04 0 27 140 68 11 9
Average 30.3 84.8 49.4 84.8 49.4 12.1 - 0.28 0 2.5 12.7 6.2 1 0.8
Maximum 31 102.3 66 114.6 - - 36.8 1.27 0 11 31 21 3 3
Minimum 28 64.5 33.8 - 29 - - 0 0 0 0 0 0 0

Climate Summary

Lindcove R.E.C.

Last Year | Showing 1/1/21 - 12/31/21
as of 11/30/22 5:10 AM PST
Temperature (°F) Max Wind Gust (mph) Precip (in) Days
Month Days Avg High Avg Low Max Min Avg Max Total Daily Min Temp < 28 Daily Min Temp < 32 Daily Max Temp > 90 Daily Max Temp > 100 Daily Rain > 0.01 Daily Rain > 0.1
Jan 2021 31 64.3 35.6 76.4 30 10.3 18.2 1.77 0 2 0 0 7 4
Feb 2021 28 68.4 37.3 79.3 32.3 10.6 20.2 0.74 0 0 0 0 2 2
Mar 2021 31 71.1 39.2 86.7 32.8 12.8 24.3 1.23 0 0 0 0 4 4
Apr 2021 30 82.7 45.4 97.1 40.6 13.1 19.3 0.1 0 0 5 0 1 0
May 2021 31 90.1 52.2 104.9 42.4 15 21.3 0 0 0 18 1 0 0
Jun 2021 30 99.2 62.3 114.7 46.9 14.1 26.3 0 0 0 25 14 0 0
Jul 2021 31 104.7 68 113.5 62.3 13.5 16.7 0.01 0 0 31 29 0 0
Aug 2021 31 100.8 63.2 107.9 57.7 12.4 18 0 0 0 28 21 0 0
Sep 2021 30 94.2 57.6 109.1 48.3 11.3 17.3 0 0 0 20 6 0 0
Oct 2021 31 78.5 46.2 90.4 35.4 10.8 20.4 2.09 0 0 2 0 3 2
Nov 2021 30 70.9 43.9 78 33.6 8 14.5 0.13 0 0 0 0 2 1
Dec 2021 31 58.2 38 81 29.9 9.4 25.2 4.85 0 3 0 0 11 10
Total 365 - - - - - - 10.92 0 5 129 71 30 23
Average 30.4 82 49.1 82 49.1 11.8 - 0.91 0 0.4 10.8 5.9 2.5 1.9
Maximum 31 104.7 68 114.7 - - 26.3 4.85 0 3 31 29 11 10
Minimum 28 58.2 35.6 - 29.9 - - 0 0 0 0 0 0 0
Calm: 0.0%
Calm: 0.0%